Time;durP1;ratioP1;P1;durP2;ratioP2;P2;SDS_P1;SDS_P2;PMS_P1;PMS_P2;Temp;Humidity;BMP_temperature;BMP_pressure;BME280_temperature;BME280_humidity;BME280_pressure;Samples;Min_cycle;Max_cycle;Signal;HPM_P1;HPM_P2
2023/06/13 00:01:30;;;;;;;6.65;4.65;;;;;;;21.81;36.31;101250.50;4995552;28;20550;-77
2023/06/13 00:03:56;;;;;;;7.68;4.90;;;;;;;21.81;36.05;101246.00;4992293;28;20022;-77
2023/06/13 00:06:22;;;;;;;7.35;4.55;;;;;;;21.79;36.24;101253.38;4991947;28;20034;-77
2023/06/13 00:08:48;;;;;;;7.53;5.20;;;;;;;21.75;36.24;101252.06;5007169;28;20356;-77
2023/06/13 00:11:15;;;;;;;9.88;4.68;;;;;;;21.72;36.28;101249.72;5021492;28;20034;-77
2023/06/13 00:13:41;;;;;;;7.95;4.93;;;;;;;21.68;36.46;101243.06;5009423;28;20057;-77
2023/06/13 00:16:09;;;;;;;9.70;5.00;;;;;;;21.65;36.64;101240.75;5009897;28;20296;-77
2023/06/13 00:18:37;;;;;;;6.20;4.75;;;;;;;21.64;36.46;101254.31;5022129;28;20030;-76
2023/06/13 00:21:06;;;;;;;9.07;4.97;;;;;;;21.56;36.60;101252.47;5010395;28;20093;-76
2023/06/13 00:23:31;;;;;;;9.02;4.72;;;;;;;21.52;36.95;101259.19;5009960;28;20071;-77
2023/06/13 00:25:58;;;;;;;6.22;4.82;;;;;;;21.47;36.85;101248.19;5014923;28;20033;-77
2023/06/13 00:28:23;;;;;;;9.25;5.05;;;;;;;21.40;36.93;101248.06;5015670;28;20565;-77
2023/06/13 00:30:49;;;;;;;7.10;5.05;;;;;;;21.36;36.84;101238.69;5010161;28;20116;-78
2023/06/13 00:33:16;;;;;;;12.98;5.10;;;;;;;21.30;37.17;101249.28;5006857;28;20041;-78
2023/06/13 00:35:42;;;;;;;9.20;4.97;;;;;;;21.24;37.58;101242.78;5007964;28;20030;-78
2023/06/13 00:38:09;;;;;;;7.55;4.88;;;;;;;21.21;37.26;101248.41;5009006;28;20029;-78
2023/06/13 00:40:35;;;;;;;6.05;4.80;;;;;;;21.13;37.69;101248.44;5011134;28;20030;-77
2023/06/13 00:43:01;;;;;;;7.10;5.20;;;;;;;21.10;37.44;101241.59;5003668;28;20110;-77
2023/06/13 00:45:28;;;;;;;6.43;4.78;;;;;;;21.06;37.88;101242.94;5010384;28;20054;-76
2023/06/13 00:48:05;;;;;;;6.93;5.32;;;;;;;21.00;37.68;101245.47;5009112;28;20053;-77
2023/06/13 00:50:34;;;;;;;6.90;5.13;;;;;;;20.94;38.12;101244.34;5008950;28;20505;-78
2023/06/13 00:53:02;;;;;;;6.30;5.18;;;;;;;20.87;38.28;101246.03;5000272;28;20025;-78
2023/06/13 00:55:28;;;;;;;6.78;5.18;;;;;;;20.78;38.34;101241.69;5015485;28;20042;-82
2023/06/13 00:58:05;;;;;;;7.88;4.95;;;;;;;20.75;38.72;101247.38;5025648;28;20049;-78
2023/06/13 01:00:33;;;;;;;9.98;4.95;;;;;;;20.65;38.68;101243.03;5010451;28;20497;-78
2023/06/13 01:02:58;;;;;;;7.50;4.90;;;;;;;20.60;38.92;101242.72;5007879;28;20420;-78
2023/06/13 01:05:28;;;;;;;8.68;4.75;;;;;;;20.56;39.20;101237.88;5009227;28;20096;-78
2023/06/13 01:07:57;;;;;;;8.10;5.18;;;;;;;20.47;39.38;101239.72;5009888;28;20079;-82
2023/06/13 01:10:24;;;;;;;12.55;5.05;;;;;;;20.43;39.62;101232.22;5007736;28;20387;-78
2023/06/13 01:13:08;;;;;;;13.10;5.25;;;;;;;20.33;39.75;101233.16;5010472;28;20030;-78
2023/06/13 01:15:42;;;;;;;7.90;5.07;;;;;;;20.29;39.81;101237.19;5006933;28;20037;-78
2023/06/13 01:18:10;;;;;;;6.40;4.93;;;;;;;20.24;40.06;101222.66;5008670;28;20033;-78
2023/06/13 01:20:37;;;;;;;8.20;5.18;;;;;;;20.14;40.50;101233.50;5008975;28;20551;-78
2023/06/13 01:23:30;;;;;;;7.80;5.13;;;;;;;20.13;40.24;101231.00;5008775;28;20034;-78
2023/06/13 01:26:07;;;;;;;8.48;4.80;;;;;;;20.01;40.65;101233.16;5016767;28;20024;-78
2023/06/13 01:28:33;;;;;;;9.07;4.95;;;;;;;19.92;41.07;101234.16;5011593;28;20030;-78
2023/06/13 01:31:05;;;;;;;8.00;4.93;;;;;;;19.85;41.31;101228.63;4993655;28;20021;-78
2023/06/13 01:33:32;;;;;;;6.80;5.10;;;;;;;19.83;41.37;101235.13;5009873;28;20034;-78
2023/06/13 01:35:58;;;;;;;6.90;4.78;;;;;;;19.79;41.27;101234.63;5008348;28;20033;-78
2023/06/13 01:38:24;;;;;;;7.35;4.85;;;;;;;19.69;41.62;101240.13;5009610;28;20052;-79
2023/06/13 01:40:50;;;;;;;9.52;4.90;;;;;;;19.61;42.06;101240.09;5007779;28;20452;-79
2023/06/13 01:43:16;;;;;;;7.68;4.55;;;;;;;19.64;42.13;101236.28;5009158;28;20053;-78
2023/06/13 01:45:43;;;;;;;7.72;4.88;;;;;;;19.53;42.12;101231.22;5006266;28;20499;-79
2023/06/13 01:48:28;;;;;;;7.85;5.35;;;;;;;19.48;42.25;101236.19;5009648;28;20069;-79
2023/06/13 01:51:06;;;;;;;8.10;5.00;;;;;;;19.37;42.69;101230.16;5008306;28;20109;-79
2023/06/13 01:53:54;;;;;;;6.55;5.10;;;;;;;19.34;42.97;101229.63;5008887;28;20065;-78
2023/06/13 01:56:25;;;;;;;9.90;5.05;;;;;;;19.28;43.34;101232.94;5011895;28;20041;-78
2023/06/13 01:58:55;;;;;;;6.95;4.95;;;;;;;19.19;43.45;101232.06;5007542;28;20077;-77
2023/06/13 02:01:22;;;;;;;7.13;4.85;;;;;;;19.07;43.78;101220.00;5009251;28;20105;-77
2023/06/13 02:03:50;;;;;;;7.05;4.88;;;;;;;19.03;44.04;101222.16;5004084;28;20081;-77
2023/06/13 02:06:17;;;;;;;12.52;4.95;;;;;;;18.98;44.27;101228.97;5007236;28;20457;-77
2023/06/13 02:08:44;;;;;;;8.18;5.38;;;;;;;18.91;44.28;101222.59;5011332;28;20026;-77
2023/06/13 02:11:10;;;;;;;6.75;5.15;;;;;;;18.89;44.57;101228.09;5012059;28;20034;-80
2023/06/13 02:13:35;;;;;;;8.30;5.68;;;;;;;18.83;44.64;101225.22;5012341;28;20028;-76
2023/06/13 02:16:00;;;;;;;9.10;5.10;;;;;;;18.80;44.86;101226.34;5010913;28;20029;-80
2023/06/13 02:18:27;;;;;;;10.13;5.22;;;;;;;18.69;45.42;101230.13;5011060;28;20387;-77
2023/06/13 02:20:54;;;;;;;8.10;5.35;;;;;;;18.63;45.30;101233.41;4996719;28;20073;-77
2023/06/13 02:23:20;;;;;;;7.32;5.45;;;;;;;18.61;45.25;101232.69;4993683;28;20026;-76
2023/06/13 02:25:51;;;;;;;9.05;6.15;;;;;;;18.55;45.72;101228.00;5006581;28;20025;-77
2023/06/13 02:28:17;;;;;;;8.50;5.25;;;;;;;18.55;45.69;101228.00;5016390;28;20033;-77
2023/06/13 02:30:44;;;;;;;6.30;5.13;;;;;;;18.46;46.07;101223.59;5013838;28;20021;-77
2023/06/13 02:33:09;;;;;;;6.90;5.40;;;;;;;18.41;46.47;101232.06;5012227;28;20087;-77
2023/06/13 02:35:36;;;;;;;7.30;6.07;;;;;;;18.35;46.49;101229.16;5010522;28;20413;-77
2023/06/13 02:38:06;;;;;;;8.88;5.75;;;;;;;18.30;46.63;101229.63;5010697;28;20121;-77
2023/06/13 02:40:32;;;;;;;11.25;5.68;;;;;;;18.24;46.73;101227.59;5004022;28;20698;-77
2023/06/13 02:43:00;;;;;;;11.93;6.10;;;;;;;18.17;47.14;101230.03;5012612;28;20429;-77
2023/06/13 02:45:28;;;;;;;8.70;5.55;;;;;;;18.14;47.26;101234.81;5012912;28;20026;-81
2023/06/13 02:47:54;;;;;;;16.77;6.53;;;;;;;18.10;47.53;101228.97;5011915;28;20132;-77
2023/06/13 02:50:20;;;;;;;10.02;6.10;;;;;;;18.03;47.35;101222.59;5013729;28;20018;-77
2023/06/13 02:52:49;;;;;;;9.10;5.60;;;;;;;17.97;47.81;101227.66;5002473;28;20052;-77
2023/06/13 02:55:15;;;;;;;7.55;6.03;;;;;;;17.97;47.92;101233.00;5016658;28;20472;-76
2023/06/13 02:57:43;;;;;;;11.88;5.38;;;;;;;17.90;48.06;101238.09;5014662;28;20026;-76
2023/06/13 03:00:11;;;;;;;13.63;6.00;;;;;;;17.87;48.44;101237.56;5006032;28;20042;-82
2023/06/13 03:02:37;;;;;;;10.73;6.20;;;;;;;17.83;48.33;101237.03;5014541;28;20044;-76
2023/06/13 03:05:06;;;;;;;8.55;6.00;;;;;;;17.77;48.60;101237.63;5012075;28;20017;-77
2023/06/13 03:07:32;;;;;;;11.25;5.95;;;;;;;17.74;48.81;101233.44;5009442;28;20061;-77
2023/06/13 03:10:00;;;;;;;11.27;5.70;;;;;;;17.68;48.96;101228.72;4993656;28;20061;-77
2023/06/13 03:12:29;;;;;;;8.48;5.90;;;;;;;17.66;49.13;101235.16;5008116;28;20034;-77
2023/06/13 03:14:55;;;;;;;8.02;5.80;;;;;;;17.66;49.15;101229.84;5009488;28;20491;-78
2023/06/13 03:17:21;;;;;;;10.55;5.72;;;;;;;17.58;49.55;101235.88;5010318;28;20038;-77
2023/06/13 03:19:46;;;;;;;10.70;6.05;;;;;;;17.61;49.31;101243.59;5012942;28;20261;-77
2023/06/13 03:22:14;;;;;;;9.80;6.38;;;;;;;17.58;49.41;101243.03;5012419;28;20360;-77
2023/06/13 03:24:41;;;;;;;9.60;6.75;;;;;;;17.54;49.71;101238.00;5005952;28;20483;-77
2023/06/13 03:27:07;;;;;;;8.35;6.18;;;;;;;17.51;49.68;101232.97;5041426;28;20061;-77
2023/06/13 03:29:32;;;;;;;10.55;6.68;;;;;;;17.50;49.85;101236.63;5020239;28;20050;-77
2023/06/13 03:31:59;;;;;;;17.95;6.57;;;;;;;17.44;50.15;101237.22;5010662;28;20424;-81
2023/06/13 03:34:26;;;;;;;10.05;6.75;;;;;;;17.44;50.24;101228.41;5010490;28;20060;-77
2023/06/13 03:36:51;;;;;;;10.48;6.97;;;;;;;17.42;50.31;101231.22;5009853;28;20027;-77
2023/06/13 03:39:17;;;;;;;8.55;6.53;;;;;;;17.39;50.56;101228.84;5027274;28;20040;-81
2023/06/13 03:41:47;;;;;;;11.93;7.38;;;;;;;17.39;50.43;101242.16;5003354;28;20029;-81
2023/06/13 03:44:13;;;;;;;13.50;7.28;;;;;;;17.39;50.77;101236.84;5011265;28;20101;-76
2023/06/13 03:46:40;;;;;;;8.55;7.10;;;;;;;17.39;50.94;101236.00;5010829;28;20129;-81
2023/06/13 03:49:05;;;;;;;11.20;6.55;;;;;;;17.36;50.86;101234.47;5011898;28;20040;-77
2023/06/13 03:51:31;;;;;;;11.98;6.95;;;;;;;17.37;50.56;101235.31;5010899;28;20026;-82
2023/06/13 03:53:57;;;;;;;12.95;7.35;;;;;;;17.34;50.57;101233.78;5010826;28;20034;-77
2023/06/13 03:56:22;;;;;;;9.82;6.78;;;;;;;17.33;51.10;101237.44;5013810;28;20026;-77
2023/06/13 03:58:48;;;;;;;7.78;6.60;;;;;;;17.35;50.66;101238.13;5011118;28;20030;-76
2023/06/13 04:01:13;;;;;;;15.52;7.25;;;;;;;17.42;50.75;101230.38;5011000;28;20026;-82
2023/06/13 04:03:39;;;;;;;9.82;6.85;;;;;;;17.83;50.18;101226.38;5012076;28;20036;-77
2023/06/13 04:06:13;;;;;;;11.48;7.10;;;;;;;18.54;48.31;101234.31;5011163;28;20028;-81
2023/06/13 04:08:40;;;;;;;16.02;7.20;;;;;;;19.21;46.84;101232.75;5011486;28;20030;-77
2023/06/13 04:11:06;;;;;;;10.57;7.25;;;;;;;19.70;45.21;101227.63;5011584;28;20029;-77
2023/06/13 04:13:31;;;;;;;10.13;6.75;;;;;;;20.13;44.36;101220.31;4995581;28;20102;-81
2023/06/13 04:16:00;;;;;;;13.40;6.88;;;;;;;20.59;42.85;101235.69;4995865;28;20033;-77
2023/06/13 04:18:26;;;;;;;8.38;6.60;;;;;;;20.45;43.36;101228.38;5011262;28;20026;-77
2023/06/13 04:20:52;;;;;;;13.70;7.05;;;;;;;20.08;43.97;101226.16;5009884;28;20521;-81
2023/06/13 04:23:18;;;;;;;15.02;6.95;;;;;;;19.62;45.15;101227.59;5011292;28;20029;-77
2023/06/13 04:25:44;;;;;;;11.77;6.70;;;;;;;19.22;46.41;101231.75;5015175;28;20029;-77
2023/06/13 04:28:13;;;;;;;11.85;7.03;;;;;;;19.03;46.41;101237.31;5019888;28;20034;-77
2023/06/13 04:30:40;;;;;;;11.18;6.55;;;;;;;18.72;47.37;101240.47;5005626;28;20045;-77
2023/06/13 04:33:14;;;;;;;8.88;6.95;;;;;;;18.57;47.86;101236.69;5010417;28;20030;-76
2023/06/13 04:35:44;;;;;;;9.93;7.07;;;;;;;18.43;48.74;101237.25;5005033;28;20389;-77
2023/06/13 04:38:11;;;;;;;13.60;7.00;;;;;;;18.31;48.45;101247.28;5010194;28;20518;-76
2023/06/13 04:40:38;;;;;;;13.48;7.45;;;;;;;18.21;48.41;101240.38;5009108;28;20049;-81
2023/06/13 04:43:05;;;;;;;10.90;7.50;;;;;;;18.25;48.78;101250.56;5011054;28;20053;-76
2023/06/13 04:45:31;;;;;;;10.45;7.10;;;;;;;18.22;49.02;101245.56;5009738;28;20475;-78
2023/06/13 04:48:01;;;;;;;9.32;7.20;;;;;;;18.19;49.69;101245.03;5009121;28;20045;-79
2023/06/13 04:50:27;;;;;;;11.63;8.27;;;;;;;18.16;49.11;101255.00;5011456;28;20339;-77
2023/06/13 04:52:54;;;;;;;9.65;7.68;;;;;;;18.18;49.59;101252.19;5002444;28;20030;-77
2023/06/13 04:55:22;;;;;;;12.98;7.82;;;;;;;18.19;50.09;101247.69;5015378;28;20043;-77
2023/06/13 04:57:48;;;;;;;10.27;8.57;;;;;;;18.14;49.91;101256.97;5027526;28;20045;-77
2023/06/13 05:00:15;;;;;;;11.00;8.30;;;;;;;18.19;49.99;101255.69;5009877;28;20030;-76
2023/06/13 05:02:41;;;;;;;14.65;9.25;;;;;;;18.19;50.20;101253.84;5004069;28;20120;-75
2023/06/13 05:05:07;;;;;;;11.48;8.13;;;;;;;18.25;50.47;101258.56;5007133;28;20030;-77
2023/06/13 05:07:34;;;;;;;14.55;9.07;;;;;;;18.23;50.55;101254.38;5006301;28;20542;-76
2023/06/13 05:10:03;;;;;;;15.82;8.95;;;;;;;18.19;50.22;101263.66;5017301;28;20029;-77
2023/06/13 05:12:31;;;;;;;10.00;8.73;;;;;;;18.25;50.33;101263.06;5008560;28;20049;-77
2023/06/13 05:14:56;;;;;;;12.35;8.98;;;;;;;18.23;50.29;101260.53;5009785;28;20450;-81
2023/06/13 05:17:21;;;;;;;11.73;9.05;;;;;;;18.26;50.27;101265.56;5008789;28;20026;-76
2023/06/13 05:19:47;;;;;;;9.98;8.32;;;;;;;18.33;50.07;101266.63;5002790;28;20050;-76
2023/06/13 05:22:13;;;;;;;11.85;8.45;;;;;;;18.32;49.84;101269.44;5005702;28;20029;-76
2023/06/13 05:24:38;;;;;;;16.88;8.90;;;;;;;18.40;50.34;101266.84;5009003;28;20132;-77
2023/06/13 05:27:04;;;;;;;12.77;8.60;;;;;;;18.40;49.92;101264.16;5013345;28;20036;-76
2023/06/13 05:29:29;;;;;;;15.27;8.38;;;;;;;18.46;49.93;101267.09;5008634;28;20041;-78
2023/06/13 05:31:57;;;;;;;14.38;8.15;;;;;;;18.51;49.83;101274.59;5010844;28;20026;-76
2023/06/13 05:34:22;;;;;;;12.30;8.20;;;;;;;18.59;49.68;101273.84;5006718;28;20030;-76
2023/06/13 05:36:48;;;;;;;13.15;7.80;;;;;;;18.68;48.83;101270.25;4997333;28;20045;-77
2023/06/13 05:39:13;;;;;;;10.35;8.35;;;;;;;18.71;48.98;101268.13;4996769;28;20487;-76
2023/06/13 05:41:39;;;;;;;12.98;7.88;;;;;;;18.76;49.01;101275.66;5004504;28;20026;-75
2023/06/13 05:44:06;;;;;;;11.88;8.35;;;;;;;18.81;48.97;101277.84;5002105;28;20156;-76
2023/06/13 05:46:31;;;;;;;13.80;8.35;;;;;;;18.88;48.70;101276.25;5004487;28;20419;-77
2023/06/13 05:49:00;;;;;;;10.13;7.80;;;;;;;18.92;48.94;101274.94;5009561;28;20021;-76
2023/06/13 05:51:25;;;;;;;9.95;8.02;;;;;;;18.99;48.65;101275.97;5008505;28;20164;-76
2023/06/13 05:53:51;;;;;;;9.90;7.65;;;;;;;19.00;48.77;101278.47;5008512;28;20109;-76
2023/06/13 05:56:17;;;;;;;9.82;7.72;;;;;;;19.05;48.82;101268.16;5012406;28;20034;-77
2023/06/13 05:58:44;;;;;;;13.48;7.65;;;;;;;19.09;48.61;101276.69;5006739;28;20058;-77
2023/06/13 06:01:10;;;;;;;10.75;7.78;;;;;;;19.16;48.88;101277.72;5008613;28;20505;-81
2023/06/13 06:03:37;;;;;;;10.68;7.38;;;;;;;19.24;49.06;101282.28;5007775;28;20022;-77
2023/06/13 06:06:02;;;;;;;15.48;8.05;;;;;;;19.25;48.06;101279.47;5008191;28;20064;-78
2023/06/13 06:08:28;;;;;;;10.45;7.82;;;;;;;19.33;47.65;101284.84;5008711;28;20117;-80
2023/06/13 06:10:53;;;;;;;15.38;7.28;;;;;;;19.35;47.99;101274.84;5007816;28;20024;-80
2023/06/13 06:13:19;;;;;;;10.73;6.88;;;;;;;19.47;48.49;101277.22;5006281;28;20562;-81
2023/06/13 06:15:44;;;;;;;9.25;7.43;;;;;;;19.55;48.76;101290.63;5008632;28;20026;-76
2023/06/13 06:18:09;;;;;;;12.93;7.57;;;;;;;19.62;48.15;101283.66;5005464;28;20097;-77
2023/06/13 06:20:35;;;;;;;8.88;7.28;;;;;;;19.62;47.29;101283.66;5006590;28;20038;-77
2023/06/13 06:23:00;;;;;;;12.80;7.50;;;;;;;19.65;47.42;101280.66;5008796;28;20544;-72
2023/06/13 06:25:26;;;;;;;9.93;7.45;;;;;;;19.72;47.15;101279.00;5008539;28;20471;-72
2023/06/13 06:27:52;;;;;;;11.85;7.07;;;;;;;19.80;47.32;101280.88;5014499;28;20026;-72
2023/06/13 06:30:18;;;;;;;8.40;6.97;;;;;;;19.84;46.61;101280.38;5007303;28;20030;-72
2023/06/13 06:32:43;;;;;;;9.38;6.88;;;;;;;19.89;46.73;101278.03;5013889;28;20429;-71
2023/06/13 06:35:15;;;;;;;9.20;7.18;;;;;;;19.92;46.83;101283.06;5008098;28;20026;-71
2023/06/13 06:37:43;;;;;;;9.27;6.60;;;;;;;20.02;46.96;101283.78;5009784;28;20026;-72
2023/06/13 06:40:10;;;;;;;10.10;7.53;;;;;;;20.12;47.32;101280.09;5009148;28;20033;-72
2023/06/13 06:42:36;;;;;;;13.60;7.80;;;;;;;20.18;46.54;101279.44;5007190;28;20033;-76
2023/06/13 06:45:02;;;;;;;11.90;7.68;;;;;;;20.22;46.72;101280.78;5007818;28;20025;-76
2023/06/13 06:47:30;;;;;;;10.90;7.13;;;;;;;20.26;46.24;101279.44;5007018;28;20081;-76
2023/06/13 06:49:55;;;;;;;9.65;7.13;;;;;;;20.27;45.82;101276.59;5007811;28;20122;-77
2023/06/13 06:52:21;;;;;;;17.90;7.20;;;;;;;20.32;46.46;101274.25;5009660;28;20136;-79
2023/06/13 06:54:46;;;;;;;10.05;6.78;;;;;;;20.36;45.57;101269.41;5011095;28;20652;-78
2023/06/13 06:57:12;;;;;;;9.07;7.00;;;;;;;20.44;46.02;101271.31;5031538;28;20041;-81
2023/06/13 06:59:37;;;;;;;11.15;6.85;;;;;;;20.53;46.17;101271.13;5026776;28;20025;-81
2023/06/13 07:02:03;;;;;;;13.13;6.95;;;;;;;20.66;46.80;101265.28;5029963;28;20029;-83
2023/06/13 07:04:28;;;;;;;9.30;7.10;;;;;;;20.81;46.30;101268.09;5026080;28;20106;-79
2023/06/13 07:06:54;;;;;;;11.50;6.90;;;;;;;20.94;45.71;101271.91;5008265;28;20124;-79
2023/06/13 07:09:20;;;;;;;10.45;6.90;;;;;;;21.14;45.39;101269.69;5011242;28;20022;-83
2023/06/13 07:11:45;;;;;;;8.85;6.93;;;;;;;21.30;45.00;101262.66;5010622;28;20041;-78
2023/06/13 07:14:10;;;;;;;14.18;9.05;;;;;;;21.54;44.10;101282.13;5007295;28;20053;-79
2023/06/13 07:16:36;;;;;;;11.27;7.10;;;;;;;21.65;43.77;101286.28;5008577;28;20026;-81
2023/06/13 07:19:02;;;;;;;8.63;6.93;;;;;;;21.84;42.69;101284.97;5008912;28;20048;-79
2023/06/13 07:21:30;;;;;;;9.38;6.68;;;;;;;22.06;42.99;101286.06;4898751;28;20032;-77
2023/06/13 07:24:00;;;;;;;8.02;6.68;;;;;;;22.27;42.48;101278.19;4886999;28;20030;-77
2023/06/13 07:26:26;;;;;;;9.55;6.03;;;;;;;22.47;41.49;101271.34;4977418;28;20038;-77
2023/06/13 07:28:52;;;;;;;11.63;6.25;;;;;;;22.63;40.89;101270.34;5006629;28;20096;-78
2023/06/13 07:31:17;;;;;;;11.48;7.07;;;;;;;22.90;40.33;101278.88;5008921;28;20034;-79
2023/06/13 07:33:43;;;;;;;10.38;7.18;;;;;;;22.84;40.21;101277.75;5011186;28;20037;-80
2023/06/13 07:36:09;;;;;;;8.77;6.80;;;;;;;23.01;39.88;101276.53;5009760;28;20061;-77
2023/06/13 07:38:35;;;;;;;11.88;6.68;;;;;;;22.97;39.48;101272.56;5009749;28;20431;-78
2023/06/13 07:41:00;;;;;;;10.73;6.65;;;;;;;23.16;40.21;101273.03;5006520;28;20121;-81
2023/06/13 07:43:26;;;;;;;13.35;6.65;;;;;;;23.21;39.44;101278.66;5007055;28;20034;-80
2023/06/13 07:45:51;;;;;;;8.55;5.78;;;;;;;23.31;39.48;101271.19;5011369;28;20026;-82
2023/06/13 07:48:16;;;;;;;13.07;7.00;;;;;;;23.33;38.82;101275.34;5011865;28;20069;-80
2023/06/13 07:50:43;;;;;;;11.32;6.32;;;;;;;23.46;39.26;101272.00;5009168;28;20502;-81
2023/06/13 07:53:10;;;;;;;6.93;5.93;;;;;;;23.80;38.34;101265.19;5010672;28;20037;-77
2023/06/13 07:55:36;;;;;;;11.65;6.05;;;;;;;23.97;38.70;101272.00;5012652;28;20030;-76
2023/06/13 07:58:02;;;;;;;13.23;6.78;;;;;;;24.20;38.33;101267.28;5009307;28;20037;-77
2023/06/13 08:00:28;;;;;;;12.32;6.68;;;;;;;24.31;38.17;101269.47;5012299;28;20112;-77
2023/06/13 08:02:53;;;;;;;9.88;6.07;;;;;;;24.53;37.07;101272.16;5011409;28;20026;-78
2023/06/13 08:05:18;;;;;;;16.98;6.05;;;;;;;24.77;37.57;101273.56;5011139;28;20026;-79
2023/06/13 08:07:44;;;;;;;10.40;5.90;;;;;;;24.90;37.31;101263.75;5010599;28;20485;-78
2023/06/13 08:10:09;;;;;;;10.05;6.38;;;;;;;25.20;36.21;101268.91;5008027;28;20026;-78
2023/06/13 08:12:35;;;;;;;10.60;6.00;;;;;;;25.12;36.00;101271.75;5010164;28;20038;-78
2023/06/13 08:15:01;;;;;;;16.65;6.25;;;;;;;25.41;35.70;101259.91;5011345;28;20026;-78
2023/06/13 08:17:26;;;;;;;58.50;11.45;;;;;;;25.32;34.74;101272.72;5011232;28;20029;-77
2023/06/13 08:19:52;;;;;;;14.27;6.13;;;;;;;25.37;36.21;101266.72;5010550;28;20025;-77
2023/06/13 08:22:17;;;;;;;10.85;5.97;;;;;;;25.54;35.60;101268.88;5011772;28;20437;-77
2023/06/13 08:24:43;;;;;;;7.28;5.78;;;;;;;25.71;35.65;101260.47;5010603;28;20053;-79
2023/06/13 08:27:10;;;;;;;14.10;6.00;;;;;;;25.52;35.25;101270.94;5010267;28;20058;-77
2023/06/13 08:29:35;;;;;;;10.88;5.47;;;;;;;25.59;35.66;101263.69;5011543;28;20677;-73
2023/06/13 08:32:01;;;;;;;10.15;5.65;;;;;;;26.05;34.96;101263.06;5008471;28;20069;-79
2023/06/13 08:34:26;;;;;;;9.30;5.85;;;;;;;25.99;34.07;101266.53;5012823;28;20044;-78
2023/06/13 08:36:52;;;;;;;10.55;5.63;;;;;;;25.93;34.56;101270.06;5011083;28;20453;-75
2023/06/13 08:39:17;;;;;;;7.82;5.32;;;;;;;26.31;34.93;101267.63;5010512;28;20449;-74
2023/06/13 08:41:44;;;;;;;6.30;5.70;;;;;;;26.40;34.01;101252.09;5007429;28;20076;-79
2023/06/13 08:44:10;;;;;;;13.00;6.20;;;;;;;26.51;34.06;101246.09;5006406;28;20088;-78
2023/06/13 08:46:36;;;;;;;11.30;5.50;;;;;;;26.47;33.80;101252.94;5008651;28;20437;-78
2023/06/13 08:49:05;;;;;;;27.02;7.75;;;;;;;26.96;34.07;101248.94;5010310;28;20034;-79
2023/06/13 08:51:32;;;;;;;9.25;5.93;;;;;;;26.84;32.52;101246.88;5009144;28;20083;-80
2023/06/13 08:54:02;;;;;;;11.15;5.90;;;;;;;26.95;33.34;101242.69;5008587;28;20038;-79
2023/06/13 08:56:33;;;;;;;10.55;5.57;;;;;;;27.00;31.40;101242.94;5025209;28;20432;-79
2023/06/13 08:59:11;;;;;;;7.65;5.63;;;;;;;26.82;32.10;101250.84;5014298;28;20025;-79
2023/06/13 09:01:39;;;;;;;10.40;5.30;;;;;;;26.71;32.17;101235.25;5008668;28;20108;-83
2023/06/13 09:04:06;;;;;;;11.90;5.60;;;;;;;26.72;31.88;101242.31;5006514;28;20036;-80
2023/06/13 09:06:33;;;;;;;17.63;5.35;;;;;;;27.23;31.40;101234.34;5006844;28;20120;-81
2023/06/13 09:09:00;;;;;;;8.95;5.63;;;;;;;27.68;31.68;101234.38;5008502;28;20025;-79
2023/06/13 09:11:27;;;;;;;8.82;5.43;;;;;;;27.74;30.88;101236.22;5011334;28;20031;-82
2023/06/13 09:13:56;;;;;;;8.45;5.80;;;;;;;27.86;30.46;101233.63;5008878;28;20391;-85
2023/06/13 09:16:23;;;;;;;9.63;5.30;;;;;;;28.17;31.10;101225.50;5009899;28;20030;-85
2023/06/13 09:18:49;;;;;;;8.38;5.57;;;;;;;27.89;30.74;101238.59;5010602;28;20026;-84
2023/06/13 09:21:16;;;;;;;9.68;5.82;;;;;;;28.16;30.36;101228.44;5013254;28;20052;-79
2023/06/13 09:23:43;;;;;;;8.45;5.63;;;;;;;28.47;30.56;101236.53;5009145;28;20018;-81
2023/06/13 09:26:12;;;;;;;8.85;5.47;;;;;;;28.31;29.84;101240.63;5007156;28;20093;-80
2023/06/13 09:28:42;;;;;;;7.53;5.43;;;;;;;28.17;30.22;101232.81;5007148;28;20149;-80
2023/06/13 09:31:08;;;;;;;12.20;5.70;;;;;;;28.19;29.70;101233.41;5009553;28;20029;-80
2023/06/13 09:33:37;;;;;;;10.13;5.70;;;;;;;28.26;30.38;101229.63;5007302;28;20029;-80
2023/06/13 09:36:04;;;;;;;7.45;4.82;;;;;;;28.52;29.90;101215.03;5005562;28;20061;-80
2023/06/13 09:38:34;;;;;;;9.00;5.43;;;;;;;28.42;30.07;101228.25;5005874;28;20048;-79
2023/06/13 09:41:02;;;;;;;11.00;5.45;;;;;;;28.37;30.14;101228.06;5006945;28;20117;-78
2023/06/13 09:43:30;;;;;;;12.38;5.88;;;;;;;27.99;29.81;101218.13;5005751;28;20025;-79
2023/06/13 09:45:56;;;;;;;9.35;5.57;;;;;;;28.05;30.00;101216.44;5007447;28;20052;-80
2023/06/13 09:48:22;;;;;;;8.80;5.35;;;;;;;27.79;29.93;101228.28;5007834;28;20120;-80
2023/06/13 09:50:51;;;;;;;121.40;18.08;;;;;;;27.98;29.67;101221.88;5006366;28;20025;-81
2023/06/13 09:53:17;;;;;;;21.50;5.35;;;;;;;28.16;29.96;101217.63;4997572;28;20475;-79
2023/06/13 09:55:43;;;;;;;10.70;5.07;;;;;;;28.54;29.12;101215.66;5015533;28;20577;-79
2023/06/13 09:58:09;;;;;;;17.13;6.47;;;;;;;28.88;29.30;101216.19;5007132;28;20025;-80
2023/06/13 10:00:35;;;;;;;10.43;5.30;;;;;;;29.19;27.24;101218.69;5008504;28;20061;-79
2023/06/13 10:03:02;;;;;;;6.45;4.45;;;;;;;30.15;26.82;101203.44;5008819;28;20087;-80
2023/06/13 10:05:28;;;;;;;8.55;4.78;;;;;;;31.09;25.43;101204.22;5005698;28;20064;-80
2023/06/13 10:07:55;;;;;;;7.43;4.75;;;;;;;31.27;24.96;101211.44;5006748;28;20096;-79
2023/06/13 10:10:20;;;;;;;7.65;4.82;;;;;;;31.13;24.58;101206.22;5005438;28;20437;-79
2023/06/13 10:12:52;;;;;;;6.38;4.60;;;;;;;31.06;25.35;101199.28;5007795;28;20029;-80
2023/06/13 10:15:45;;;;;;;9.65;5.05;;;;;;;31.04;25.61;101204.94;5008824;28;20026;-79
2023/06/13 10:18:14;;;;;;;;;;;;;;;31.07;25.92;101207.19;5000390;28;20069;-79
2023/06/13 10:20:40;;;;;;;8.77;4.68;;;;;;;30.39;25.55;101213.25;5008971;28;20289;-79
2023/06/13 10:23:13;;;;;;;8.02;4.35;;;;;;;30.04;25.31;101209.69;5008785;28;20018;-81
2023/06/13 10:25:39;;;;;;;6.45;4.70;;;;;;;29.97;24.85;101208.91;5007935;28;20022;-80
2023/06/13 10:28:28;;;;;;;7.28;4.30;;;;;;;30.03;26.02;101214.28;5007876;28;20514;-80
2023/06/13 10:31:05;;;;;;;7.97;4.43;;;;;;;30.07;25.28;101214.63;4993898;28;20041;-78
2023/06/13 10:33:47;;;;;;;8.90;4.20;;;;;;;29.97;25.02;101203.47;5007548;28;20036;-79
2023/06/13 10:36:34;;;;;;;8.23;4.47;;;;;;;29.95;26.14;101211.84;5009636;28;20032;-78
2023/06/13 10:39:20;;;;;;;8.02;4.60;;;;;;;30.19;25.69;101210.88;5012107;28;20788;-79
2023/06/13 10:42:16;;;;;;;9.77;4.47;;;;;;;30.11;25.78;101205.78;5012924;28;20470;-79
2023/06/13 10:45:32;;;;;;;10.48;4.90;;;;;;;30.22;25.22;101204.97;5012605;28;20032;-78
2023/06/13 10:48:05;;;;;;;13.52;4.90;;;;;;;29.73;25.70;101210.75;4935817;29;20061;-75
2023/06/13 10:50:36;;;;;;;7.00;4.35;;;;;;;29.79;25.59;101218.78;4997220;28;20041;-75
2023/06/13 10:53:01;;;;;;;6.55;4.93;;;;;;;29.83;25.55;101211.81;5011777;28;20037;-75
2023/06/13 10:55:29;;;;;;;6.97;4.45;;;;;;;30.04;25.54;101198.81;5012743;28;20029;-75
2023/06/13 10:57:56;;;;;;;6.90;4.38;;;;;;;29.93;25.19;101200.41;5010960;28;20030;-75
2023/06/13 11:00:33;;;;;;;12.00;4.70;;;;;;;29.84;24.65;101199.91;5010623;28;20036;-75
2023/06/13 11:03:07;;;;;;;8.10;3.90;;;;;;;29.95;24.18;101203.72;5013691;28;20045;-75
2023/06/13 11:05:37;;;;;;;5.60;4.45;;;;;;;30.05;23.35;101203.19;5012119;28;20475;-75
2023/06/13 11:08:05;;;;;;;7.28;4.28;;;;;;;29.97;23.57;101192.63;5010411;28;20021;-75
2023/06/13 11:10:31;;;;;;;6.63;4.13;;;;;;;30.37;23.51;101193.63;5012868;28;20109;-75
2023/06/13 11:12:56;;;;;;;4.95;3.70;;;;;;;30.37;22.97;101190.09;5013016;28;20168;-75
2023/06/13 11:15:26;;;;;;;5.32;4.10;;;;;;;30.41;22.66;101170.38;5005528;28;20116;-76
2023/06/13 11:18:08;;;;;;;7.22;4.90;;;;;;;30.09;23.92;101186.19;5009825;28;20030;-80
2023/06/13 11:20:34;;;;;;;6.78;4.53;;;;;;;29.58;23.55;101184.84;5011446;28;20030;-78
2023/06/13 11:23:01;;;;;;;5.95;3.97;;;;;;;29.33;23.94;101198.53;5024259;28;20028;-77
2023/06/13 11:25:26;;;;;;;4.57;3.90;;;;;;;29.28;23.88;101190.25;5010696;28;20371;-78